Portada
METAR-TAF:

METAR-TAF

Aeroports :

Muscle Shoals, Alabama, Estats Units d'Amèrica

latitud: 34-44-38N, longitud: 087-35-58W, altitud: 167 m

Observació

L'informe es va fer fa 38 minuts, a les 06:53 UTC
Vent calma
Temperatura -2°C
Humitat 63%
Pressió 1030 hPa
Visibilitat: 16.1 km
Cel clar

METAR: KMSL 220653Z AUTO 00000KT 10SM CLR M02/M08 A3041 RMK AO2 SLP302 T10221083 $

Hora: 01:31 (07:31 UTC)

Pronòstic

L'informe es va fer fa 2 hores i 11 minuts, a les 05:20 UTC
Pronòstic vàlid del 22 a les 06 UTC al 23 a les 06 UTC
Vent 3 kt amb direcció variable
Visibilitat: 10 km
Escasses núvols a una alçada de 25000 ft
A partir de les 22 a les 1800 UTC
Vent 7 kt del Sud/Sud-Est
Visibilitat: 10 km
Cel ennuvolat a una alçada de 25000 ft
A partir de les 23 a les 0000 UTC
Vent 3 kt amb direcció variable
Visibilitat: 10 km
Cel cobert a una alçada de 25000 ft

TAF: KMSL 220520Z 2206/2306 VRB03KT P6SM FEW250 FM221800 16007KT P6SM BKN250 FM230000 VRB03KT P6SM OVC250

Observacions i pronòstics meteorològics de més de 4000 aeroports (METAR i TAF).

Les estacions disponibles són els punts grocs i vermells al mapa.

Posi el ratolí al punt desitjat per veure el nom de l'estació.

Feu clic per veure les observacions i els pronòstics meteorològics.

Per canviar el mapa: feu clic els botons verds amb una creu de color negre per apropar; al botó verd amb un guió per allunyar la imatge; o en les fletxes verdes per a mapes adjacents.


METAR-TAF: